sensor_id;sensor_type;location;lat;lon;timestamp;temperature;humidity
21551;DHT22;10936;49.836;7.078;2022-11-25T06:02:34;18.40;97.10
21551;DHT22;10936;49.836;7.078;2022-11-25T06:04:59;18.50;97.10
21551;DHT22;10936;49.836;7.078;2022-11-25T06:07:25;18.40;97.10
21551;DHT22;10936;49.836;7.078;2022-11-25T06:09:50;18.40;97.10
21551;DHT22;10936;49.836;7.078;2022-11-25T06:12:16;18.40;97.10
21551;DHT22;10936;49.836;7.078;2022-11-25T06:14:41;18.40;97.10
21551;DHT22;10936;49.836;7.078;2022-11-25T06:17:07;18.40;97.10
21551;DHT22;10936;49.836;7.078;2022-11-25T06:19:32;18.40;97.10
21551;DHT22;10936;49.836;7.078;2022-11-25T06:21:58;18.40;97.10
21551;DHT22;10936;49.836;7.078;2022-11-25T06:24:24;18.40;97.20
21551;DHT22;10936;49.836;7.078;2022-11-25T06:26:49;18.40;97.20
21551;DHT22;10936;49.836;7.078;2022-11-25T06:29:15;18.40;97.20
21551;DHT22;10936;49.836;7.078;2022-11-25T06:31:40;18.40;97.20
21551;DHT22;10936;49.836;7.078;2022-11-25T06:34:06;18.40;97.20
21551;DHT22;10936;49.836;7.078;2022-11-25T06:36:33;18.40;97.10
21551;DHT22;10936;49.836;7.078;2022-11-25T06:38:59;18.40;97.10
21551;DHT22;10936;49.836;7.078;2022-11-25T06:41:24;18.40;97.10
21551;DHT22;10936;49.836;7.078;2022-11-25T06:43:50;18.40;97.10
21551;DHT22;10936;49.836;7.078;2022-11-25T06:46:17;18.40;97.20
21551;DHT22;10936;49.836;7.078;2022-11-25T06:48:43;18.40;97.20
21551;DHT22;10936;49.836;7.078;2022-11-25T06:51:11;18.40;97.20
21551;DHT22;10936;49.836;7.078;2022-11-25T06:53:37;18.40;97.30
21551;DHT22;10936;49.836;7.078;2022-11-25T06:58:39;18.40;97.50
21551;DHT22;10936;49.836;7.078;2022-11-25T07:03:45;18.40;97.50
21551;DHT22;10936;49.836;7.078;2022-11-25T07:06:12;18.50;97.60
21551;DHT22;10936;49.836;7.078;2022-11-25T07:08:39;18.50;97.60
21551;DHT22;10936;49.836;7.078;2022-11-25T07:11:12;18.50;97.60
21551;DHT22;10936;49.836;7.078;2022-11-25T07:13:40;18.50;97.70
21551;DHT22;10936;49.836;7.078;2022-11-25T07:16:06;18.50;97.70
21551;DHT22;10936;49.836;7.078;2022-11-25T07:18:33;18.50;97.60
21551;DHT22;10936;49.836;7.078;2022-11-25T07:23:33;18.50;97.50
21551;DHT22;10936;49.836;7.078;2022-11-25T07:28:35;18.50;97.50
21551;DHT22;10936;49.836;7.078;2022-11-25T07:31:17;18.50;97.50
21551;DHT22;10936;49.836;7.078;2022-11-25T07:33:43;18.50;97.50
21551;DHT22;10936;49.836;7.078;2022-11-25T07:36:10;18.50;97.50
21551;DHT22;10936;49.836;7.078;2022-11-25T07:38:37;18.50;97.50
21551;DHT22;10936;49.836;7.078;2022-11-25T07:41:08;18.50;97.50
21551;DHT22;10936;49.836;7.078;2022-11-25T07:43:34;18.50;97.40
21551;DHT22;10936;49.836;7.078;2022-11-25T07:46:18;18.50;97.40
21551;DHT22;10936;49.836;7.078;2022-11-25T07:48:44;18.50;97.40
21551;DHT22;10936;49.836;7.078;2022-11-25T07:51:25;18.40;97.40
21551;DHT22;10936;49.836;7.078;2022-11-25T07:53:53;18.50;97.40
21551;DHT22;10936;49.836;7.078;2022-11-25T07:56:19;18.50;97.40
21551;DHT22;10936;49.836;7.078;2022-11-25T07:58:46;18.40;97.40
21551;DHT22;10936;49.836;7.078;2022-11-25T08:01:14;18.40;97.30
21551;DHT22;10936;49.836;7.078;2022-11-25T08:03:41;18.40;97.30
21551;DHT22;10936;49.836;7.078;2022-11-25T08:06:10;18.50;97.40
21551;DHT22;10936;49.836;7.078;2022-11-25T08:08:37;18.40;97.30
21551;DHT22;10936;49.836;7.078;2022-11-25T08:11:11;18.40;97.30
21551;DHT22;10936;49.836;7.078;2022-11-25T08:13:37;18.40;97.30
21551;DHT22;10936;49.836;7.078;2022-11-25T08:16:04;18.40;97.30
21551;DHT22;10936;49.836;7.078;2022-11-25T08:18:30;18.40;97.30
21551;DHT22;10936;49.836;7.078;2022-11-25T08:21:03;18.40;97.30
21551;DHT22;10936;49.836;7.078;2022-11-25T08:23:32;18.40;97.30
21551;DHT22;10936;49.836;7.078;2022-11-25T08:26:03;18.40;97.30
21551;DHT22;10936;49.836;7.078;2022-11-25T08:28:29;18.40;97.30
21551;DHT22;10936;49.836;7.078;2022-11-25T08:31:04;18.40;97.30
21551;DHT22;10936;49.836;7.078;2022-11-25T08:33:30;18.40;97.30
21551;DHT22;10936;49.836;7.078;2022-11-25T08:35:56;18.40;97.30
21551;DHT22;10936;49.836;7.078;2022-11-25T08:38:22;18.40;97.30
21551;DHT22;10936;49.836;7.078;2022-11-25T08:40:48;18.40;97.30
21551;DHT22;10936;49.836;7.078;2022-11-25T08:43:13;18.40;97.30
21551;DHT22;10936;49.836;7.078;2022-11-25T08:45:39;18.40;97.30
21551;DHT22;10936;49.836;7.078;2022-11-25T08:48:05;18.40;97.30
21551;DHT22;10936;49.836;7.078;2022-11-25T08:50:31;18.40;97.30
21551;DHT22;10936;49.836;7.078;2022-11-25T08:52:57;18.40;97.30
21551;DHT22;10936;49.836;7.078;2022-11-25T08:55:24;18.40;97.30
21551;DHT22;10936;49.836;7.078;2022-11-25T08:57:53;18.40;97.30
21551;DHT22;10936;49.836;7.078;2022-11-25T09:00:20;18.40;97.40
21551;DHT22;10936;49.836;7.078;2022-11-25T09:02:46;18.40;97.40
21551;DHT22;10936;49.836;7.078;2022-11-25T09:05:13;18.40;97.30
21551;DHT22;10936;49.836;7.078;2022-11-25T09:07:39;18.40;97.30
21551;DHT22;10936;49.836;7.078;2022-11-25T09:10:11;18.40;97.40
21551;DHT22;10936;49.836;7.078;2022-11-25T09:12:37;18.40;97.40
21551;DHT22;10936;49.836;7.078;2022-11-25T09:15:04;18.50;97.40
21551;DHT22;10936;49.836;7.078;2022-11-25T09:17:30;18.50;97.40
21551;DHT22;10936;49.836;7.078;2022-11-25T09:19:55;18.50;97.40
21551;DHT22;10936;49.836;7.078;2022-11-25T09:22:21;18.50;97.30
21551;DHT22;10936;49.836;7.078;2022-11-25T09:24:47;18.50;97.30
21551;DHT22;10936;49.836;7.078;2022-11-25T09:27:12;18.50;97.30
21551;DHT22;10936;49.836;7.078;2022-11-25T09:29:38;18.50;97.40
21551;DHT22;10936;49.836;7.078;2022-11-25T09:32:04;18.50;97.30
21551;DHT22;10936;49.836;7.078;2022-11-25T09:34:29;18.50;97.30
21551;DHT22;10936;49.836;7.078;2022-11-25T09:36:55;18.50;97.30
21551;DHT22;10936;49.836;7.078;2022-11-25T09:39:20;18.50;97.30
21551;DHT22;10936;49.836;7.078;2022-11-25T09:45:21;18.50;97.30
21551;DHT22;10936;49.836;7.078;2022-11-25T09:53:56;18.50;97.30
21551;DHT22;10936;49.836;7.078;2022-11-25T09:56:41;18.50;97.30
21551;DHT22;10936;49.836;7.078;2022-11-25T10:01:57;18.50;97.30
21551;DHT22;10936;49.836;7.078;2022-11-25T10:04:33;18.50;97.30
21551;DHT22;10936;49.836;7.078;2022-11-25T10:07:03;18.50;97.30
21551;DHT22;10936;49.836;7.078;2022-11-25T10:09:32;18.40;97.20
21551;DHT22;10936;49.836;7.078;2022-11-25T10:12:28;18.50;97.30
21551;DHT22;10936;49.836;7.078;2022-11-25T10:15:00;18.50;97.20
21551;DHT22;10936;49.836;7.078;2022-11-25T10:20:05;18.50;97.20
21551;DHT22;10936;49.836;7.078;2022-11-25T10:22:34;18.50;97.20
21551;DHT22;10936;49.836;7.078;2022-11-25T10:25:20;18.40;97.20
21551;DHT22;10936;49.836;7.078;2022-11-25T10:27:54;18.40;97.20
21551;DHT22;10936;49.836;7.078;2022-11-25T10:30:35;18.50;97.20
21551;DHT22;10936;49.836;7.078;2022-11-25T10:35:57;18.40;97.20
21551;DHT22;10936;49.836;7.078;2022-11-25T10:38:28;18.40;97.20
21551;DHT22;10936;49.836;7.078;2022-11-25T10:40:55;18.40;97.20
21551;DHT22;10936;49.836;7.078;2022-11-25T10:43:21;18.40;97.20
21551;DHT22;10936;49.836;7.078;2022-11-25T10:46:06;18.50;97.20
21551;DHT22;10936;49.836;7.078;2022-11-25T10:48:58;18.40;97.10
21551;DHT22;10936;49.836;7.078;2022-11-25T10:54:21;18.50;97.10
21551;DHT22;10936;49.836;7.078;2022-11-25T10:56:51;18.50;97.10
21551;DHT22;10936;49.836;7.078;2022-11-25T10:59:27;18.50;97.10
21551;DHT22;10936;49.836;7.078;2022-11-25T11:02:12;18.50;97.10
21551;DHT22;10936;49.836;7.078;2022-11-25T11:07:19;18.50;97.10
21551;DHT22;10936;49.836;7.078;2022-11-25T11:09:45;18.50;97.10
21551;DHT22;10936;49.836;7.078;2022-11-25T11:15:21;18.50;97.20
21551;DHT22;10936;49.836;7.078;2022-11-25T11:17:47;18.40;97.00
21551;DHT22;10936;49.836;7.078;2022-11-25T11:20:36;18.50;97.10
21551;DHT22;10936;49.836;7.078;2022-11-25T11:23:12;18.50;97.10
21551;DHT22;10936;49.836;7.078;2022-11-25T11:26:05;18.50;97.10
21551;DHT22;10936;49.836;7.078;2022-11-25T11:28:30;18.50;97.10
21551;DHT22;10936;49.836;7.078;2022-11-25T11:31:06;18.50;97.10
21551;DHT22;10936;49.836;7.078;2022-11-25T11:42:12;18.40;97.10
21551;DHT22;10936;49.836;7.078;2022-11-25T11:47:52;18.40;97.10
21551;DHT22;10936;49.836;7.078;2022-11-25T11:50:31;18.40;97.10
21551;DHT22;10936;49.836;7.078;2022-11-25T11:53:05;18.40;97.10
21551;DHT22;10936;49.836;7.078;2022-11-25T11:56:00;18.50;97.10
21551;DHT22;10936;49.836;7.078;2022-11-25T12:09:45;18.40;97.10
21551;DHT22;10936;49.836;7.078;2022-11-25T12:12:15;18.40;97.00
21551;DHT22;10936;49.836;7.078;2022-11-25T12:17:45;18.40;97.00
21551;DHT22;10936;49.836;7.078;2022-11-25T12:23:14;18.40;97.00
21551;DHT22;10936;49.836;7.078;2022-11-25T12:25:43;18.40;97.00
21551;DHT22;10936;49.836;7.078;2022-11-25T12:28:15;18.40;97.10
21551;DHT22;10936;49.836;7.078;2022-11-25T12:33:27;18.40;97.10
21551;DHT22;10936;49.836;7.078;2022-11-25T12:36:11;18.40;97.00
21551;DHT22;10936;49.836;7.078;2022-11-25T12:38:54;18.40;97.00
21551;DHT22;10936;49.836;7.078;2022-11-25T12:46:51;18.40;97.10
21551;DHT22;10936;49.836;7.078;2022-11-25T12:49:20;18.40;97.10
21551;DHT22;10936;49.836;7.078;2022-11-25T12:51:57;18.40;97.10
21551;DHT22;10936;49.836;7.078;2022-11-25T12:55:22;18.40;97.10
21551;DHT22;10936;49.836;7.078;2022-11-25T13:03:55;18.40;97.10
21551;DHT22;10936;49.836;7.078;2022-11-25T13:06:58;18.40;97.10
21551;DHT22;10936;49.836;7.078;2022-11-25T13:15:27;18.40;97.10
21551;DHT22;10936;49.836;7.078;2022-11-25T13:17:58;18.40;97.20
21551;DHT22;10936;49.836;7.078;2022-11-25T13:25:33;18.40;97.20
21551;DHT22;10936;49.836;7.078;2022-11-25T13:28:01;18.40;97.20
21551;DHT22;10936;49.836;7.078;2022-11-25T13:41:19;18.40;97.20
21551;DHT22;10936;49.836;7.078;2022-11-25T13:44:08;18.50;97.20
21551;DHT22;10936;49.836;7.078;2022-11-25T13:46:42;18.50;97.20
21551;DHT22;10936;49.836;7.078;2022-11-25T13:54:51;18.50;97.20
21551;DHT22;10936;49.836;7.078;2022-11-25T13:57:34;18.50;97.20
21551;DHT22;10936;49.836;7.078;2022-11-25T14:02:53;18.40;97.20
21551;DHT22;10936;49.836;7.078;2022-11-25T14:20:19;18.40;97.30
21551;DHT22;10936;49.836;7.078;2022-11-25T14:25:53;18.40;97.40
21551;DHT22;10936;49.836;7.078;2022-11-25T14:28:44;18.40;97.40
21551;DHT22;10936;49.836;7.078;2022-11-25T14:31:18;18.40;97.40
21551;DHT22;10936;49.836;7.078;2022-11-25T14:33:58;18.40;97.40
21551;DHT22;10936;49.836;7.078;2022-11-25T14:36:30;18.40;97.40
21551;DHT22;10936;49.836;7.078;2022-11-25T14:39:01;18.40;97.40
21551;DHT22;10936;49.836;7.078;2022-11-25T14:41:53;18.40;97.40
21551;DHT22;10936;49.836;7.078;2022-11-25T14:44:31;18.40;97.40
21551;DHT22;10936;49.836;7.078;2022-11-25T14:47:03;18.40;97.40
21551;DHT22;10936;49.836;7.078;2022-11-25T14:49:42;18.40;97.50
21551;DHT22;10936;49.836;7.078;2022-11-25T14:52:07;18.40;97.50
21551;DHT22;10936;49.836;7.078;2022-11-25T14:54:42;18.40;97.50
21551;DHT22;10936;49.836;7.078;2022-11-25T14:57:08;18.40;97.50
21551;DHT22;10936;49.836;7.078;2022-11-25T14:59:35;18.30;97.40
21551;DHT22;10936;49.836;7.078;2022-11-25T15:02:01;18.30;97.40
21551;DHT22;10936;49.836;7.078;2022-11-25T15:04:30;18.30;97.40
21551;DHT22;10936;49.836;7.078;2022-11-25T15:06:57;18.30;97.40
21551;DHT22;10936;49.836;7.078;2022-11-25T15:09:46;18.30;97.40
21551;DHT22;10936;49.836;7.078;2022-11-25T15:12:19;18.30;97.40
21551;DHT22;10936;49.836;7.078;2022-11-25T15:14:51;18.30;97.40
21551;DHT22;10936;49.836;7.078;2022-11-25T15:17:30;18.30;97.40
21551;DHT22;10936;49.836;7.078;2022-11-25T15:19:58;18.30;97.50
21551;DHT22;10936;49.836;7.078;2022-11-25T15:22:26;18.30;97.50
21551;DHT22;10936;49.836;7.078;2022-11-25T15:24:54;18.30;97.50
21551;DHT22;10936;49.836;7.078;2022-11-25T15:27:25;18.30;97.50
21551;DHT22;10936;49.836;7.078;2022-11-25T15:29:52;18.30;97.50
21551;DHT22;10936;49.836;7.078;2022-11-25T15:32:24;18.30;97.50
21551;DHT22;10936;49.836;7.078;2022-11-25T15:34:52;18.30;97.50
21551;DHT22;10936;49.836;7.078;2022-11-25T15:37:18;18.30;97.50
21551;DHT22;10936;49.836;7.078;2022-11-25T15:39:44;18.30;97.50
21551;DHT22;10936;49.836;7.078;2022-11-25T15:42:25;18.30;97.50
21551;DHT22;10936;49.836;7.078;2022-11-25T15:45:08;18.30;97.50
21551;DHT22;10936;49.836;7.078;2022-11-25T15:47:35;18.30;97.50
21551;DHT22;10936;49.836;7.078;2022-11-25T15:50:15;18.30;97.50
21551;DHT22;10936;49.836;7.078;2022-11-25T15:52:46;18.30;97.50
21551;DHT22;10936;49.836;7.078;2022-11-25T15:55:36;18.30;97.50
21551;DHT22;10936;49.836;7.078;2022-11-25T15:58:19;18.30;97.50
21551;DHT22;10936;49.836;7.078;2022-11-25T16:03:29;18.20;97.50
21551;DHT22;10936;49.836;7.078;2022-11-25T16:05:59;18.20;97.50
21551;DHT22;10936;49.836;7.078;2022-11-25T16:08:37;18.20;97.50
21551;DHT22;10936;49.836;7.078;2022-11-25T16:11:10;18.20;97.50
21551;DHT22;10936;49.836;7.078;2022-11-25T16:13:37;18.20;97.50
21551;DHT22;10936;49.836;7.078;2022-11-25T16:16:20;18.20;97.50
21551;DHT22;10936;49.836;7.078;2022-11-25T16:26:52;18.20;97.50
21551;DHT22;10936;49.836;7.078;2022-11-25T16:29:46;18.20;97.50
21551;DHT22;10936;49.836;7.078;2022-11-25T16:32:14;18.20;97.50
21551;DHT22;10936;49.836;7.078;2022-11-25T16:34:40;18.20;97.50
21551;DHT22;10936;49.836;7.078;2022-11-25T16:37:06;18.20;97.50
21551;DHT22;10936;49.836;7.078;2022-11-25T16:39:32;18.20;97.50
21551;DHT22;10936;49.836;7.078;2022-11-25T16:41:59;18.20;97.50
21551;DHT22;10936;49.836;7.078;2022-11-25T16:44:28;18.20;97.80
21551;DHT22;10936;49.836;7.078;2022-11-25T16:46:54;18.20;97.80
21551;DHT22;10936;49.836;7.078;2022-11-25T16:49:21;18.20;98.10
21551;DHT22;10936;49.836;7.078;2022-11-25T16:51:47;18.20;98.00
21551;DHT22;10936;49.836;7.078;2022-11-25T16:54:16;18.20;98.00
21551;DHT22;10936;49.836;7.078;2022-11-25T16:56:42;18.20;98.00
21551;DHT22;10936;49.836;7.078;2022-11-25T16:59:17;18.20;98.10
21551;DHT22;10936;49.836;7.078;2022-11-25T17:01:43;18.20;98.20
21551;DHT22;10936;49.836;7.078;2022-11-25T17:04:16;18.20;98.30
21551;DHT22;10936;49.836;7.078;2022-11-25T17:06:42;18.20;98.40
21551;DHT22;10936;49.836;7.078;2022-11-25T17:09:09;18.20;98.60
21551;DHT22;10936;49.836;7.078;2022-11-25T17:11:44;18.30;98.80
21551;DHT22;10936;49.836;7.078;2022-11-25T17:14:22;18.30;98.90
21551;DHT22;10936;49.836;7.078;2022-11-25T17:16:49;18.30;99.10
21551;DHT22;10936;49.836;7.078;2022-11-25T17:19:15;18.30;99.10
21551;DHT22;10936;49.836;7.078;2022-11-25T17:21:42;18.30;99.20
21551;DHT22;10936;49.836;7.078;2022-11-25T17:24:24;18.30;99.20
21551;DHT22;10936;49.836;7.078;2022-11-25T17:26:56;18.40;99.40
21551;DHT22;10936;49.836;7.078;2022-11-25T17:29:30;18.40;99.40
21551;DHT22;10936;49.836;7.078;2022-11-25T17:31:58;18.40;99.40
21551;DHT22;10936;49.836;7.078;2022-11-25T17:34:24;18.40;99.50
21551;DHT22;10936;49.836;7.078;2022-11-25T17:36:49;18.40;99.50
21551;DHT22;10936;49.836;7.078;2022-11-25T17:39:16;18.40;99.60
21551;DHT22;10936;49.836;7.078;2022-11-25T17:41:45;18.40;99.60
21551;DHT22;10936;49.836;7.078;2022-11-25T17:44:31;18.40;99.50
21551;DHT22;10936;49.836;7.078;2022-11-25T17:46:57;18.40;99.60
21551;DHT22;10936;49.836;7.078;2022-11-25T17:49:24;18.40;99.60
21551;DHT22;10936;49.836;7.078;2022-11-25T17:51:50;18.50;99.60
21551;DHT22;10936;49.836;7.078;2022-11-25T17:54:16;18.40;99.70
21551;DHT22;10936;49.836;7.078;2022-11-25T17:56:43;18.50;99.70
21551;DHT22;10936;49.836;7.078;2022-11-25T17:59:17;18.50;99.80
21551;DHT22;10936;49.836;7.078;2022-11-25T18:01:44;18.50;99.70
21551;DHT22;10936;49.836;7.078;2022-11-25T18:04:30;18.50;99.70
21551;DHT22;10936;49.836;7.078;2022-11-25T18:06:56;18.50;99.80
21551;DHT22;10936;49.836;7.078;2022-11-25T18:09:22;18.50;99.80
21551;DHT22;10936;49.836;7.078;2022-11-25T18:11:53;18.50;99.80
21551;DHT22;10936;49.836;7.078;2022-11-25T18:14:31;18.50;99.80
21551;DHT22;10936;49.836;7.078;2022-11-25T18:17:03;18.50;99.80
21551;DHT22;10936;49.836;7.078;2022-11-25T18:19:29;18.50;99.90
21551;DHT22;10936;49.836;7.078;2022-11-25T18:22:16;18.50;99.80
21551;DHT22;10936;49.836;7.078;2022-11-25T18:24:42;18.50;99.60
21551;DHT22;10936;49.836;7.078;2022-11-25T18:27:34;18.50;99.50
21551;DHT22;10936;49.836;7.078;2022-11-25T18:30:00;18.50;99.60
21551;DHT22;10936;49.836;7.078;2022-11-25T18:32:27;18.50;99.60
21551;DHT22;10936;49.836;7.078;2022-11-25T18:34:52;18.50;99.50
21551;DHT22;10936;49.836;7.078;2022-11-25T18:37:18;18.50;99.50
21551;DHT22;10936;49.836;7.078;2022-11-25T18:39:43;18.50;99.40
21551;DHT22;10936;49.836;7.078;2022-11-25T18:42:22;18.50;99.40
21551;DHT22;10936;49.836;7.078;2022-11-25T18:44:48;18.50;99.40
21551;DHT22;10936;49.836;7.078;2022-11-25T18:47:14;18.50;99.40
21551;DHT22;10936;49.836;7.078;2022-11-25T18:49:40;18.50;99.30
21551;DHT22;10936;49.836;7.078;2022-11-25T18:52:05;18.50;99.30
21551;DHT22;10936;49.836;7.078;2022-11-25T18:54:31;18.40;99.20
21551;DHT22;10936;49.836;7.078;2022-11-25T18:56:56;18.40;99.60
21551;DHT22;10936;49.836;7.078;2022-11-25T18:59:27;18.40;99.20
21551;DHT22;10936;49.836;7.078;2022-11-25T19:01:54;18.40;99.50
21551;DHT22;10936;49.836;7.078;2022-11-25T19:04:19;18.40;99.10
21551;DHT22;10936;49.836;7.078;2022-11-25T19:06:45;18.40;99.10
21551;DHT22;10936;49.836;7.078;2022-11-25T19:09:11;18.40;99.10
21551;DHT22;10936;49.836;7.078;2022-11-25T19:11:43;18.40;99.10
21551;DHT22;10936;49.836;7.078;2022-11-25T19:14:20;18.40;99.10
21551;DHT22;10936;49.836;7.078;2022-11-25T19:16:47;18.40;99.10
21551;DHT22;10936;49.836;7.078;2022-11-25T19:19:16;18.40;99.00
21551;DHT22;10936;49.836;7.078;2022-11-25T19:21:42;18.30;99.00
21551;DHT22;10936;49.836;7.078;2022-11-25T19:24:12;18.30;98.90
21551;DHT22;10936;49.836;7.078;2022-11-25T19:26:44;18.30;98.90
21551;DHT22;10936;49.836;7.078;2022-11-25T19:29:17;18.30;98.90
21551;DHT22;10936;49.836;7.078;2022-11-25T19:31:43;18.30;98.90
21551;DHT22;10936;49.836;7.078;2022-11-25T19:34:29;18.30;98.90
21551;DHT22;10936;49.836;7.078;2022-11-25T19:36:56;18.30;98.90
21551;DHT22;10936;49.836;7.078;2022-11-25T19:39:22;18.30;98.80
21551;DHT22;10936;49.836;7.078;2022-11-25T19:41:47;18.30;98.80
21551;DHT22;10936;49.836;7.078;2022-11-25T19:44:13;18.30;98.80
21551;DHT22;10936;49.836;7.078;2022-11-25T19:46:42;18.30;98.80
21551;DHT22;10936;49.836;7.078;2022-11-25T19:49:09;18.30;98.80
21551;DHT22;10936;49.836;7.078;2022-11-25T19:51:37;18.20;98.70
21551;DHT22;10936;49.836;7.078;2022-11-25T19:54:03;18.30;98.80
21551;DHT22;10936;49.836;7.078;2022-11-25T19:56:28;18.30;98.70
21551;DHT22;10936;49.836;7.078;2022-11-25T19:58:54;18.30;98.70
21551;DHT22;10936;49.836;7.078;2022-11-25T20:01:24;18.20;98.70
21551;DHT22;10936;49.836;7.078;2022-11-25T20:03:52;18.20;98.70
21551;DHT22;10936;49.836;7.078;2022-11-25T20:06:19;18.20;98.60
21551;DHT22;10936;49.836;7.078;2022-11-25T20:08:45;18.20;98.60
21551;DHT22;10936;49.836;7.078;2022-11-25T20:11:12;18.20;98.60
21551;DHT22;10936;49.836;7.078;2022-11-25T20:13:39;18.20;98.60
21551;DHT22;10936;49.836;7.078;2022-11-25T20:16:13;18.20;98.60
21551;DHT22;10936;49.836;7.078;2022-11-25T20:18:40;18.20;98.60
21551;DHT22;10936;49.836;7.078;2022-11-25T20:21:06;18.20;98.60
21551;DHT22;10936;49.836;7.078;2022-11-25T20:23:34;18.20;98.60
21551;DHT22;10936;49.836;7.078;2022-11-25T20:26:02;18.20;98.60
21551;DHT22;10936;49.836;7.078;2022-11-25T20:28:29;18.20;98.50
21551;DHT22;10936;49.836;7.078;2022-11-25T20:30:55;18.20;98.50
21551;DHT22;10936;49.836;7.078;2022-11-25T20:33:23;18.20;98.50
21551;DHT22;10936;49.836;7.078;2022-11-25T20:35:51;18.20;98.50
21551;DHT22;10936;49.836;7.078;2022-11-25T20:38:20;18.20;98.50
21551;DHT22;10936;49.836;7.078;2022-11-25T20:40:51;18.20;98.50
21551;DHT22;10936;49.836;7.078;2022-11-25T20:45:46;18.20;98.50
21551;DHT22;10936;49.836;7.078;2022-11-25T20:48:11;18.20;98.50
21551;DHT22;10936;49.836;7.078;2022-11-25T20:50:37;18.20;98.50
21551;DHT22;10936;49.836;7.078;2022-11-25T20:53:03;18.20;98.40
21551;DHT22;10936;49.836;7.078;2022-11-25T20:55:29;18.20;98.40
21551;DHT22;10936;49.836;7.078;2022-11-25T20:57:54;18.10;98.40
21551;DHT22;10936;49.836;7.078;2022-11-25T21:00:23;18.10;98.40
21551;DHT22;10936;49.836;7.078;2022-11-25T21:02:50;18.20;98.40
21551;DHT22;10936;49.836;7.078;2022-11-25T21:05:17;18.20;98.40
21551;DHT22;10936;49.836;7.078;2022-11-25T21:07:44;18.10;98.40
21551;DHT22;10936;49.836;7.078;2022-11-25T21:10:30;18.20;98.40
21551;DHT22;10936;49.836;7.078;2022-11-25T21:12:59;18.10;98.30
21551;DHT22;10936;49.836;7.078;2022-11-25T21:15:25;18.10;98.70
21551;DHT22;10936;49.836;7.078;2022-11-25T21:17:53;18.10;98.40
21551;DHT22;10936;49.836;7.078;2022-11-25T21:20:19;18.10;98.30
21551;DHT22;10936;49.836;7.078;2022-11-25T21:22:49;18.10;98.30
21551;DHT22;10936;49.836;7.078;2022-11-25T21:25:17;18.10;98.30
21551;DHT22;10936;49.836;7.078;2022-11-25T21:27:44;18.10;98.30
21551;DHT22;10936;49.836;7.078;2022-11-25T21:30:26;18.10;98.30
21551;DHT22;10936;49.836;7.078;2022-11-25T21:32:54;18.10;98.30
21551;DHT22;10936;49.836;7.078;2022-11-25T21:35:21;18.10;98.30
21551;DHT22;10936;49.836;7.078;2022-11-25T21:37:48;18.10;98.30
21551;DHT22;10936;49.836;7.078;2022-11-25T21:40:32;18.10;98.30
21551;DHT22;10936;49.836;7.078;2022-11-25T21:42:59;18.10;98.30
21551;DHT22;10936;49.836;7.078;2022-11-25T21:45:25;18.10;98.30
21551;DHT22;10936;49.836;7.078;2022-11-25T21:47:51;18.10;98.30
21551;DHT22;10936;49.836;7.078;2022-11-25T21:50:18;18.10;98.30
21551;DHT22;10936;49.836;7.078;2022-11-25T21:52:44;18.10;98.30
21551;DHT22;10936;49.836;7.078;2022-11-25T21:55:13;18.10;98.30
21551;DHT22;10936;49.836;7.078;2022-11-25T21:57:40;18.10;98.30
21551;DHT22;10936;49.836;7.078;2022-11-25T22:00:23;18.10;98.30
21551;DHT22;10936;49.836;7.078;2022-11-25T22:02:49;18.10;98.30
21551;DHT22;10936;49.836;7.078;2022-11-25T22:05:17;18.00;98.20
21551;DHT22;10936;49.836;7.078;2022-11-25T22:07:43;18.00;98.20
21551;DHT22;10936;49.836;7.078;2022-11-25T22:10:10;18.10;98.30
21551;DHT22;10936;49.836;7.078;2022-11-25T22:12:36;18.00;98.20
21551;DHT22;10936;49.836;7.078;2022-11-25T22:15:06;18.00;98.20
21551;DHT22;10936;49.836;7.078;2022-11-25T22:17:36;18.00;98.20
21551;DHT22;10936;49.836;7.078;2022-11-25T22:20:02;18.00;98.20
21551;DHT22;10936;49.836;7.078;2022-11-25T22:22:28;18.00;98.20
21551;DHT22;10936;49.836;7.078;2022-11-25T22:24:53;18.00;98.20
21551;DHT22;10936;49.836;7.078;2022-11-25T22:27:22;18.10;98.20
21551;DHT22;10936;49.836;7.078;2022-11-25T22:29:48;18.00;98.20
21551;DHT22;10936;49.836;7.078;2022-11-25T22:32:16;18.00;98.50
21551;DHT22;10936;49.836;7.078;2022-11-25T22:34:42;18.00;98.20
21551;DHT22;10936;49.836;7.078;2022-11-25T22:37:19;18.10;98.20
21551;DHT22;10936;49.836;7.078;2022-11-25T22:39:45;18.00;98.20
21551;DHT22;10936;49.836;7.078;2022-11-25T22:42:28;18.00;98.20
21551;DHT22;10936;49.836;7.078;2022-11-25T22:44:56;18.00;98.20
21551;DHT22;10936;49.836;7.078;2022-11-25T22:47:27;18.00;98.20
21551;DHT22;10936;49.836;7.078;2022-11-25T22:49:53;18.00;98.20
21551;DHT22;10936;49.836;7.078;2022-11-25T22:52:25;18.00;98.20
21551;DHT22;10936;49.836;7.078;2022-11-25T22:54:52;18.00;98.20
21551;DHT22;10936;49.836;7.078;2022-11-25T22:57:17;18.00;98.20
21551;DHT22;10936;49.836;7.078;2022-11-25T22:59:43;18.00;98.20
21551;DHT22;10936;49.836;7.078;2022-11-25T23:02:20;18.00;98.20
21551;DHT22;10936;49.836;7.078;2022-11-25T23:04:51;18.00;98.20
21551;DHT22;10936;49.836;7.078;2022-11-25T23:07:18;18.00;98.20
21551;DHT22;10936;49.836;7.078;2022-11-25T23:09:44;18.00;98.20
21551;DHT22;10936;49.836;7.078;2022-11-25T23:12:13;18.00;98.20
21551;DHT22;10936;49.836;7.078;2022-11-25T23:14:39;18.00;98.20
21551;DHT22;10936;49.836;7.078;2022-11-25T23:17:16;18.00;98.20
21551;DHT22;10936;49.836;7.078;2022-11-25T23:19:43;18.00;98.20
21551;DHT22;10936;49.836;7.078;2022-11-25T23:22:10;18.00;98.20
21551;DHT22;10936;49.836;7.078;2022-11-25T23:24:42;18.00;98.20
21551;DHT22;10936;49.836;7.078;2022-11-25T23:27:08;18.00;98.20
21551;DHT22;10936;49.836;7.078;2022-11-25T23:29:33;18.00;98.20
21551;DHT22;10936;49.836;7.078;2022-11-25T23:32:02;18.00;98.20
21551;DHT22;10936;49.836;7.078;2022-11-25T23:34:28;18.00;98.20
21551;DHT22;10936;49.836;7.078;2022-11-25T23:36:55;18.00;98.20
21551;DHT22;10936;49.836;7.078;2022-11-25T23:39:23;18.00;98.20
21551;DHT22;10936;49.836;7.078;2022-11-25T23:41:49;18.00;98.20
21551;DHT22;10936;49.836;7.078;2022-11-25T23:44:22;18.00;98.10
21551;DHT22;10936;49.836;7.078;2022-11-25T23:46:53;18.00;98.20
21551;DHT22;10936;49.836;7.078;2022-11-25T23:49:26;18.00;98.20
21551;DHT22;10936;49.836;7.078;2022-11-25T23:51:55;17.90;98.10
21551;DHT22;10936;49.836;7.078;2022-11-25T23:54:24;18.00;98.20
21551;DHT22;10936;49.836;7.078;2022-11-25T23:56:53;18.00;98.20
21551;DHT22;10936;49.836;7.078;2022-11-25T23:59:18;18.00;98.20
